Pagrindinis puslapis
METAR-TAF:

METAR-TAF

Oro uostai :

Niamėjus, Nigeris

platuma: 13-29N, ilguma: 002-10E, Aukštis: 223 m

Dabartinis oras

Ataskaita buvo paskelbta 1 valandą ir 13 minutes, ne 01:00 UTC
Vėjas 6 kt iš Šiaurės
Temperatūra 31°C
Drėgmė 13%
Slėgis 1008 hPa
Matomumas: 6000 m

METAR: DRRN 010100Z 36006KT 6000 NSC 31/M01 Q1008 NOSIG

Laikas: 03:13 (02:13 UTC)

Prognozė

Ataskaita buvo paskelbta 3 valandos ir 13 minutes, ne 23:00 UTC
Prognozė galioja nuo 01 metu 00 UTC su 02 metu 06 UTC
Vėjas 8 kt iš Šiaurės/Šiaurės Rytų
Matomumas: 8000 m
Laikinai
nuo 01 metu 08 UTC su 01 metu 12 UTC
Vėjas 18 kt iš Rytų
Matomumas: 3500 m
Dulkes pustymas
Laikinai
nuo 01 metu 17 UTC su 01 metu 20 UTC
Matomumas: 4500 m
dulkės

TAF: DRRN 312300Z 0100/0206 02008KT 8000 NSC TEMPO 0108/0112 08018KT 3500 BLDU TEMPO 0117/0120 4500 DU

Orai ataskaitas ir orų prognozės (METAR, TAF).

turimą stotys yra geltonos ir raudonos taškus žemėlapyje.

Perkelti pele per norėdami pamatyti stoties vardą.

Tada spustelėkite, norėdami matyti oro stebėjimo ir prognozės.

Norėdami pakeisti žemėlapį: spustelėkite ant žalios mygtukų su juodo kryžiaus žemyn,; žalią mygtuką su brūkšneliu, jei norite nutolinti; arba žalių rodyklių gretimoms žemėlapius.


METAR-TAF: